Time;durP1;ratioP1;P1;durP2;ratioP2;P2;SDS_P1;SDS_P2;PMS_P1;PMS_P2;Temp;Humidity;BMP_temperature;BMP_pressure;BME280_temperature;BME280_humidity;BME280_pressure;Samples;Min_cycle;Max_cycle;Signal;HPM_P1;HPM_P2
2021/05/12 00:01:47;;;;;;;0.13;0.13;;;;;;;-143.37;100.00;65745.06;5113929;28;20261;-68
2021/05/12 00:04:13;;;;;;;0.63;0.20;;;;;;;-143.37;100.00;65745.06;5113851;28;20225;-68
2021/05/12 00:06:39;;;;;;;0.57;0.27;;;;;;;-143.37;100.00;65745.06;5113553;28;20255;-68
2021/05/12 00:09:06;;;;;;;0.20;0.20;;;;;;;-143.37;100.00;65745.06;5113644;28;20228;-68
2021/05/12 00:11:32;;;;;;;0.20;0.20;;;;;;;-143.37;100.00;65745.06;5113956;28;20211;-67
2021/05/12 00:13:59;;;;;;;0.33;0.33;;;;;;;-143.37;100.00;65745.06;5094391;28;20231;-67
2021/05/12 00:16:26;;;;;;;0.20;0.20;;;;;;;-143.37;100.00;65745.06;5113332;28;20741;-67
2021/05/12 00:18:52;;;;;;;0.63;0.37;;;;;;;-143.37;100.00;65745.06;5113882;28;20199;-67
2021/05/12 00:21:43;;;;;;;0.20;0.20;;;;;;;-143.37;100.00;65745.06;5113970;28;20239;-68
2021/05/12 00:24:08;;;;;;;0.30;0.30;;;;;;;-143.37;100.00;65745.06;5113523;28;20676;-68
2021/05/12 00:26:39;;;;;;;0.57;0.40;;;;;;;-143.37;100.00;65745.06;5113582;28;20310;-68
2021/05/12 00:29:14;;;;;;;0.20;0.20;;;;;;;-143.37;100.00;65745.06;5113724;28;20223;-68
2021/05/12 00:31:44;;;;;;;0.10;0.10;;;;;;;-143.37;100.00;65745.06;5096629;28;20187;-67
2021/05/12 00:34:11;;;;;;;0.20;0.20;;;;;;;-143.37;100.00;65745.06;5113216;28;20302;-67
2021/05/12 00:36:38;;;;;;;0.53;0.20;;;;;;;-143.37;100.00;65745.06;5087322;27;20229;-67
2021/05/12 00:39:06;;;;;;;0.20;0.10;;;;;;;-143.37;100.00;65745.06;5078523;28;20204;-67
2021/05/12 00:41:40;;;;;;;0.20;0.20;;;;;;;-143.37;100.00;65745.06;5088922;28;20261;-67
2021/05/12 00:44:15;;;;;;;0.30;0.20;;;;;;;-143.37;100.00;65745.06;5102009;28;20235;-66
2021/05/12 00:46:46;;;;;;;0.20;0.20;;;;;;;-143.37;100.00;65745.06;5108862;28;20713;-67
2021/05/12 00:49:14;;;;;;;0.43;0.30;;;;;;;-143.37;100.00;65745.06;5108221;28;20220;-68
2021/05/12 00:51:41;;;;;;;0.70;0.40;;;;;;;-143.37;100.00;65745.06;5093114;28;20264;-68
2021/05/12 00:54:09;;;;;;;0.47;0.40;;;;;;;-143.37;100.00;65745.06;5112769;28;20211;-68
2021/05/12 00:56:38;;;;;;;0.10;0.10;;;;;;;-143.37;100.00;65745.06;5112691;28;20706;-67
2021/05/12 00:59:04;;;;;;;0.27;0.20;;;;;;;-143.37;100.00;65745.06;5112624;28;20714;-68
2021/05/12 01:34:30;;;;;;;0.93;0.80;;;;;;;-143.37;100.00;65745.06;5109475;27;20524;-67
2021/05/12 01:36:57;;;;;;;0.50;0.50;;;;;;;-143.37;100.00;65745.06;5109798;28;20334;-68
2021/05/12 01:39:24;;;;;;;0.43;0.43;;;;;;;-143.37;100.00;65745.06;5109898;28;20204;-68
2021/05/12 01:41:51;;;;;;;0.30;0.23;;;;;;;-143.37;100.00;65745.06;5109814;28;20200;-68
2021/05/12 01:44:17;;;;;;;0.53;0.50;;;;;;;-143.37;100.00;65745.06;5109580;28;20200;-67
2021/05/12 01:46:46;;;;;;;0.37;0.30;;;;;;;-143.37;100.00;65745.06;5109606;28;20266;-68
2021/05/12 01:49:13;;;;;;;0.27;0.27;;;;;;;-143.37;100.00;65745.06;5112699;28;20847;-68
2021/05/12 01:51:40;;;;;;;0.40;0.40;;;;;;;-143.37;100.00;65745.06;5130211;27;20231;-69
2021/05/12 01:54:09;;;;;;;0.50;0.50;;;;;;;-143.37;100.00;65745.06;5129915;27;20261;-68
2021/05/12 01:56:37;;;;;;;0.30;0.30;;;;;;;-143.37;100.00;65745.06;5128448;28;20227;-68
2021/05/12 01:59:05;;;;;;;0.63;0.57;;;;;;;-143.37;100.00;65745.06;5113159;27;20259;-68
2021/05/12 02:01:31;;;;;;;0.43;0.43;;;;;;;-143.37;100.00;65745.06;5109239;28;20211;-68
2021/05/12 02:04:06;;;;;;;0.43;0.43;;;;;;;-143.37;100.00;65745.06;5109381;28;20199;-68
2021/05/12 02:06:33;;;;;;;0.60;0.50;;;;;;;-143.37;100.00;65745.06;5108785;28;20231;-67
2021/05/12 02:09:01;;;;;;;0.37;0.37;;;;;;;-143.37;100.00;65745.06;5109149;28;20229;-67
2021/05/12 02:11:28;;;;;;;0.30;0.30;;;;;;;-143.37;100.00;65745.06;5107857;28;20232;-67
2021/05/12 02:13:54;;;;;;;0.63;0.47;;;;;;;-143.37;100.00;65745.06;5108800;28;20628;-67
2021/05/12 02:16:21;;;;;;;0.53;0.30;;;;;;;-143.37;100.00;65745.06;5107507;28;20760;-68
2021/05/12 02:18:47;;;;;;;0.20;0.20;;;;;;;-143.37;100.00;65745.06;5109017;28;20208;-68
2021/05/12 02:21:14;;;;;;;0.40;0.30;;;;;;;-143.37;100.00;65745.06;5108814;28;20204;-68
2021/05/12 02:23:41;;;;;;;0.30;0.30;;;;;;;-143.37;100.00;65745.06;5108809;28;20203;-68
2021/05/12 02:26:07;;;;;;;0.20;0.20;;;;;;;-143.37;100.00;65745.06;5107344;28;20209;-68
2021/05/12 02:28:34;;;;;;;0.23;0.23;;;;;;;-143.37;100.00;65745.06;5108512;28;20312;-68
2021/05/12 02:31:00;;;;;;;0.50;0.50;;;;;;;-143.37;100.00;65745.06;5108634;28;20295;-68
2021/05/12 02:33:26;;;;;;;0.47;0.37;;;;;;;-143.37;100.00;65745.06;5107474;28;20262;-68
2021/05/12 02:35:53;;;;;;;0.20;0.20;;;;;;;-143.37;100.00;65745.06;5107175;28;20715;-68
2021/05/12 02:38:19;;;;;;;0.30;0.30;;;;;;;-143.37;100.00;65745.06;5108473;28;20263;-68
2021/05/12 02:40:46;;;;;;;0.30;0.30;;;;;;;-143.37;100.00;65745.06;5108482;28;20240;-68
2021/05/12 02:43:13;;;;;;;0.40;0.40;;;;;;;-143.37;100.00;65745.06;5102609;28;20554;-68
2021/05/12 02:45:39;;;;;;;0.50;0.37;;;;;;;-143.37;100.00;65745.06;5075539;28;20666;-68
2021/05/12 02:48:06;;;;;;;0.30;0.30;;;;;;;-143.37;100.00;65745.06;5074342;28;20257;-68
2021/05/12 02:50:36;;;;;;;0.37;0.37;;;;;;;-143.37;100.00;65745.06;5102931;28;20204;-68
2021/05/12 02:53:04;;;;;;;0.80;0.40;;;;;;;-143.37;100.00;65745.06;5114965;28;20223;-68
2021/05/12 02:55:32;;;;;;;0.40;0.40;;;;;;;-143.37;100.00;65745.06;5114625;28;20286;-68
2021/05/12 02:57:59;;;;;;;0.30;0.30;;;;;;;-143.37;100.00;65745.06;5107496;28;20273;-68
2021/05/12 03:00:28;;;;;;;0.83;0.60;;;;;;;-143.37;100.00;65745.06;5094458;28;20568;-68
2021/05/12 03:02:57;;;;;;;0.43;0.37;;;;;;;-143.37;100.00;65745.06;5093603;28;20200;-67
2021/05/12 03:05:25;;;;;;;0.37;0.37;;;;;;;-143.37;100.00;65745.06;5094140;28;20208;-67
2021/05/12 03:07:52;;;;;;;0.23;0.23;;;;;;;-143.37;100.00;65745.06;5094522;28;20267;-66
2021/05/12 03:10:21;;;;;;;0.30;0.30;;;;;;;-143.37;100.00;65745.06;5094649;28;20292;-67
2021/05/12 03:12:48;;;;;;;0.30;0.30;;;;;;;-143.37;100.00;65745.06;5094458;28;20228;-66
2021/05/12 03:15:19;;;;;;;0.30;0.30;;;;;;;-143.37;100.00;65745.06;5093293;28;20649;-66
2021/05/12 03:17:49;;;;;;;0.30;0.30;;;;;;;-143.37;100.00;65745.06;5094666;28;20221;-67
2021/05/12 03:20:16;;;;;;;0.20;0.20;;;;;;;-143.37;100.00;65745.06;5094625;28;20216;-67
2021/05/12 03:22:43;;;;;;;0.40;0.40;;;;;;;-143.37;100.00;65745.06;5092835;28;20240;-67
2021/05/12 03:25:11;;;;;;;0.90;0.50;;;;;;;-143.37;100.00;65745.06;5093906;28;20606;-66
2021/05/12 03:27:37;;;;;;;1.10;0.53;;;;;;;-143.37;100.00;65745.06;5092814;28;20661;-66
2021/05/12 03:30:08;;;;;;;0.20;0.20;;;;;;;-143.37;100.00;65745.06;5094199;28;20291;-66
2021/05/12 03:32:35;;;;;;;0.90;0.70;;;;;;;-143.37;100.00;65745.06;5093896;28;20281;-66
2021/05/12 03:35:02;;;;;;;0.23;0.23;;;;;;;-143.37;100.00;65745.06;5092628;28;20205;-66
2021/05/12 03:37:28;;;;;;;0.47;0.40;;;;;;;-143.37;100.00;65745.06;5092868;28;20225;-66
2021/05/12 03:39:55;;;;;;;0.30;0.30;;;;;;;-143.37;100.00;65745.06;5092816;28;20240;-67
2021/05/12 03:42:21;;;;;;;0.27;0.27;;;;;;;-143.37;100.00;65745.06;5093832;28;20668;-66
2021/05/12 03:44:48;;;;;;;0.40;0.40;;;;;;;-143.37;100.00;65745.06;5092726;28;20292;-66
2021/05/12 03:47:15;;;;;;;0.23;0.23;;;;;;;-143.37;100.00;65745.06;5092438;28;20293;-66
2021/05/12 03:49:41;;;;;;;0.50;0.40;;;;;;;-143.37;100.00;65745.06;5100526;28;20676;-66
2021/05/12 03:52:08;;;;;;;0.50;0.50;;;;;;;-143.37;100.00;65745.06;5090127;28;20263;-67
2021/05/12 03:54:34;;;;;;;0.30;0.30;;;;;;;-143.37;100.00;65745.06;5071002;28;20279;-67
2021/05/12 03:57:01;;;;;;;0.40;0.40;;;;;;;-143.37;100.00;65745.06;5067163;28;20294;-68
2021/05/12 03:59:28;;;;;;;0.60;0.60;;;;;;;-143.37;100.00;65745.06;5086892;28;20279;-67
2021/05/12 04:01:54;;;;;;;0.87;0.57;;;;;;;-143.37;100.00;65745.06;5088490;28;20208;-67
2021/05/12 04:04:21;;;;;;;0.37;0.37;;;;;;;-143.37;100.00;65745.06;5087092;28;20246;-68
2021/05/12 04:06:48;;;;;;;0.40;0.40;;;;;;;-143.37;100.00;65745.06;5091977;28;20311;-68
2021/05/12 04:09:16;;;;;;;0.50;0.30;;;;;;;-143.37;100.00;65745.06;5092850;28;20553;-67
2021/05/12 04:11:44;;;;;;;0.20;0.20;;;;;;;-143.37;100.00;65745.06;5092101;28;20211;-68
2021/05/12 04:14:11;;;;;;;0.43;0.37;;;;;;;-143.37;100.00;65745.06;5093036;28;20252;-68
2021/05/12 04:16:37;;;;;;;0.33;0.30;;;;;;;-143.37;100.00;65745.06;5092740;28;20796;-68
2021/05/12 04:19:04;;;;;;;0.60;0.50;;;;;;;-143.37;100.00;65745.06;5091664;28;20244;-67
2021/05/12 04:21:31;;;;;;;0.37;0.27;;;;;;;-143.37;100.00;65745.06;5091949;28;20712;-68
2021/05/12 04:23:57;;;;;;;0.30;0.30;;;;;;;-143.37;100.00;65745.06;5093109;28;20204;-68
2021/05/12 04:26:24;;;;;;;3.07;0.30;;;;;;;-143.37;100.00;65745.06;5092825;28;20208;-67
2021/05/12 04:28:51;;;;;;;0.30;0.23;;;;;;;-143.37;100.00;65745.06;5093178;28;20228;-67
2021/05/12 04:31:17;;;;;;;0.53;0.30;;;;;;;-143.37;100.00;65745.06;5091528;28;20207;-67
2021/05/12 04:33:44;;;;;;;0.30;0.30;;;;;;;-143.37;100.00;65745.06;5092659;28;20776;-68
2021/05/12 04:36:10;;;;;;;0.20;0.20;;;;;;;-143.37;100.00;65745.06;5092785;28;20205;-68
2021/05/12 04:38:37;;;;;;;0.30;0.30;;;;;;;-143.37;100.00;65745.06;5092519;28;20273;-68
2021/05/12 04:41:03;;;;;;;0.37;0.37;;;;;;;-143.37;100.00;65745.06;5092698;28;20235;-68
2021/05/12 04:43:30;;;;;;;0.20;0.20;;;;;;;-143.37;100.00;65745.06;5084655;28;20232;-68
2021/05/12 04:45:56;;;;;;;0.43;0.40;;;;;;;-143.37;100.00;65745.06;5072134;28;20696;-68
2021/05/12 04:48:23;;;;;;;0.40;0.40;;;;;;;-143.37;100.00;65745.06;5072564;28;20225;-68
2021/05/12 04:50:49;;;;;;;0.20;0.20;;;;;;;-143.37;100.00;65745.06;5104247;28;20200;-68
2021/05/12 04:53:16;;;;;;;0.30;0.30;;;;;;;-143.37;100.00;65745.06;5113586;28;20223;-68
2021/05/12 04:55:42;;;;;;;0.43;0.40;;;;;;;-143.37;100.00;65745.06;5113150;28;20200;-67
2021/05/12 04:58:09;;;;;;;0.40;0.40;;;;;;;-143.37;100.00;65745.06;5104804;28;20221;-67
2021/05/12 05:00:35;;;;;;;0.80;0.60;;;;;;;-143.37;100.00;65745.06;5091247;28;20292;-67
2021/05/12 05:03:04;;;;;;;1.37;0.70;;;;;;;-143.37;100.00;65745.06;5092231;28;20200;-66
2021/05/12 05:05:30;;;;;;;0.50;0.47;;;;;;;-143.37;100.00;65745.06;5092023;28;20605;-66
2021/05/12 05:07:57;;;;;;;0.27;0.27;;;;;;;-143.37;100.00;65745.06;5090887;28;20267;-67
2021/05/12 05:10:24;;;;;;;0.37;0.37;;;;;;;-143.37;100.00;65745.06;5092106;28;20211;-67
2021/05/12 05:12:50;;;;;;;0.90;0.60;;;;;;;-143.37;100.00;65745.06;5092031;28;20244;-67
2021/05/12 05:15:17;;;;;;;0.37;0.37;;;;;;;-143.37;100.00;65745.06;5091716;28;20324;-68
2021/05/12 05:17:44;;;;;;;0.93;0.67;;;;;;;-143.37;100.00;65745.06;5090918;28;20670;-67
2021/05/12 05:20:12;;;;;;;0.20;0.20;;;;;;;-143.37;100.00;65745.06;5092500;28;20236;-68
2021/05/12 05:22:39;;;;;;;1.90;0.50;;;;;;;-143.37;100.00;65745.06;5091927;28;20204;-68
2021/05/12 05:25:06;;;;;;;0.80;0.60;;;;;;;-143.37;100.00;65745.06;5091780;28;20211;-68
2021/05/12 05:27:33;;;;;;;1.57;0.50;;;;;;;-143.37;100.00;65745.06;5091818;28;20240;-68
2021/05/12 05:30:00;;;;;;;0.23;0.20;;;;;;;-143.37;100.00;65745.06;5092147;28;20265;-70
2021/05/12 05:32:27;;;;;;;0.50;0.50;;;;;;;-143.37;100.00;65745.06;5090789;28;20281;-68
2021/05/12 05:34:53;;;;;;;0.40;0.40;;;;;;;-143.37;100.00;65745.06;5091586;28;20269;-69
2021/05/12 05:37:23;;;;;;;0.47;0.40;;;;;;;-143.37;100.00;65745.06;5091686;28;20233;-68
2021/05/12 05:39:51;;;;;;;0.57;0.53;;;;;;;-143.37;100.00;65745.06;5090803;28;20287;-68
2021/05/12 05:42:17;;;;;;;2.00;0.43;;;;;;;-143.37;100.00;65745.06;5091789;28;20208;-68
2021/05/12 05:44:44;;;;;;;0.50;0.50;;;;;;;-143.37;100.00;65745.06;5072180;28;20201;-67
2021/05/12 05:47:10;;;;;;;0.50;0.50;;;;;;;-143.37;100.00;65745.06;5071666;28;20265;-68
2021/05/12 05:49:37;;;;;;;1.60;0.70;;;;;;;-143.37;100.00;65745.06;5084239;28;20200;-68
2021/05/12 05:52:04;;;;;;;2.80;1.10;;;;;;;-143.37;100.00;65745.06;5110858;28;20285;-68
2021/05/12 05:54:30;;;;;;;0.40;0.33;;;;;;;-143.37;100.00;65745.06;5082225;28;20308;-67
2021/05/12 05:57:03;;;;;;;0.40;0.40;;;;;;;-143.37;100.00;65745.06;5086638;28;20271;-68
2021/05/12 05:59:30;;;;;;;1.13;0.70;;;;;;;-143.37;100.00;65745.06;5086747;28;20238;-68
2021/05/12 06:01:57;;;;;;;0.30;0.30;;;;;;;-143.37;100.00;65745.06;5083308;28;20247;-70
2021/05/12 06:04:25;;;;;;;1.50;0.67;;;;;;;-143.37;100.00;65745.06;5084522;28;20204;-69
2021/05/12 06:06:52;;;;;;;0.80;0.37;;;;;;;-143.37;100.00;65745.06;5083639;28;20644;-70
2021/05/12 06:09:19;;;;;;;2.70;1.03;;;;;;;-143.37;100.00;65745.06;5084994;28;20204;-69
2021/05/12 06:11:45;;;;;;;0.40;0.40;;;;;;;-143.37;100.00;65745.06;5084132;28;20760;-70
2021/05/12 06:14:12;;;;;;;1.40;0.60;;;;;;;-143.37;100.00;65745.06;5084983;28;20315;-71
2021/05/12 06:16:39;;;;;;;0.30;0.30;;;;;;;-143.37;100.00;65745.06;5084464;28;20585;-70
2021/05/12 06:19:05;;;;;;;0.50;0.40;;;;;;;-143.37;100.00;65745.06;5085524;28;20619;-70
2021/05/12 06:21:32;;;;;;;0.40;0.30;;;;;;;-143.37;100.00;65745.06;5070312;28;20204;-69
2021/05/12 06:23:58;;;;;;;0.37;0.27;;;;;;;-143.37;100.00;65745.06;5087531;28;20224;-70
2021/05/12 06:26:25;;;;;;;0.43;0.30;;;;;;;-143.37;100.00;65745.06;5085978;28;20231;-68
2021/05/12 06:28:51;;;;;;;0.30;0.30;;;;;;;-143.37;100.00;65745.06;5088661;28;20204;-68
2021/05/12 06:31:18;;;;;;;0.57;0.50;;;;;;;-143.37;100.00;65745.06;5089399;28;20228;-69
2021/05/12 06:33:47;;;;;;;0.40;0.30;;;;;;;-143.37;100.00;65745.06;5089141;28;20232;-68
2021/05/12 06:36:16;;;;;;;3.30;0.50;;;;;;;-143.37;100.00;65745.06;5087784;28;20228;-68
2021/05/12 06:39:04;;;;;;;0.63;0.53;;;;;;;-143.37;100.00;65745.06;5089642;28;20236;-68
2021/05/12 06:41:31;;;;;;;8.37;0.53;;;;;;;-143.37;100.00;65745.06;5088466;28;20295;-68
2021/05/12 06:43:58;;;;;;;0.30;0.30;;;;;;;-143.37;100.00;65745.06;5088541;28;20196;-69
2021/05/12 06:46:25;;;;;;;0.30;0.30;;;;;;;-143.37;100.00;65745.06;5088492;28;20635;-68
2021/05/12 06:48:51;;;;;;;0.20;0.20;;;;;;;-143.37;100.00;65745.06;5088291;28;20232;-68
2021/05/12 06:51:19;;;;;;;1.47;0.47;;;;;;;-143.37;100.00;65745.06;5068170;28;20296;-68
2021/05/12 06:53:46;;;;;;;0.27;0.20;;;;;;;-143.37;100.00;65745.06;5068536;28;20197;-68
2021/05/12 06:56:14;;;;;;;0.30;0.30;;;;;;;-143.37;100.00;65745.06;5071255;28;20197;-68
2021/05/12 06:58:42;;;;;;;0.20;0.20;;;;;;;-143.37;100.00;65745.06;5088205;28;20246;-68
2021/05/12 07:01:14;;;;;;;0.30;0.30;;;;;;;-143.37;100.00;65745.06;5088423;28;21071;-68
2021/05/12 07:03:41;;;;;;;1.07;0.30;;;;;;;-143.37;100.00;65745.06;5088293;28;20204;-69
2021/05/12 07:06:07;;;;;;;0.20;0.20;;;;;;;-143.37;100.00;65745.06;5087264;28;20205;-67
2021/05/12 07:08:37;;;;;;;0.30;0.30;;;;;;;-143.37;100.00;65745.06;5088288;28;20790;-68
2021/05/12 07:11:04;;;;;;;0.20;0.20;;;;;;;-143.37;100.00;65745.06;5088729;28;20777;-68
2021/05/12 07:13:31;;;;;;;0.30;0.20;;;;;;;-143.37;100.00;65745.06;5086793;28;20201;-67
2021/05/12 07:15:58;;;;;;;0.83;0.40;;;;;;;-143.37;100.00;65745.06;5081132;28;20277;-68
2021/05/12 07:18:24;;;;;;;0.33;0.33;;;;;;;-143.37;100.00;65745.06;5088644;28;20235;-69
2021/05/12 07:20:51;;;;;;;2.30;0.70;;;;;;;-143.37;100.00;65745.06;5087705;28;20239;-69
2021/05/12 07:23:22;;;;;;;0.63;0.33;;;;;;;-143.37;100.00;65745.06;5086789;28;20230;-67
2021/05/12 07:25:49;;;;;;;0.30;0.27;;;;;;;-143.37;100.00;65745.06;5086499;28;21009;-69
2021/05/12 07:28:17;;;;;;;0.10;0.10;;;;;;;-143.37;100.00;65745.06;5086542;28;20235;-69
2021/05/12 07:30:44;;;;;;;0.27;0.27;;;;;;;-143.37;100.00;65745.06;5086119;28;20269;-69
2021/05/12 07:33:11;;;;;;;0.77;0.40;;;;;;;-143.37;100.00;65745.06;5088201;28;20299;-68
2021/05/12 07:35:38;;;;;;;4.10;1.00;;;;;;;-143.37;100.00;65745.06;5068383;28;20314;-68
2021/05/12 07:38:05;;;;;;;0.63;0.60;;;;;;;-143.37;100.00;65745.06;5066844;28;20240;-68
2021/05/12 07:40:33;;;;;;;0.43;0.43;;;;;;;-143.37;100.00;65745.06;5067684;28;20648;-68
2021/05/12 07:43:03;;;;;;;0.40;0.40;;;;;;;-143.37;100.00;65745.06;5070788;28;20228;-66
2021/05/12 07:45:29;;;;;;;0.50;0.30;;;;;;;-143.37;100.00;65745.06;5086503;28;20215;-68
2021/05/12 07:48:09;;;;;;;0.30;0.30;;;;;;;-143.37;100.00;65745.06;5070354;28;20239;-68
2021/05/12 07:50:37;;;;;;;0.73;0.50;;;;;;;-143.37;100.00;65745.06;5087660;28;20282;-67
2021/05/12 07:53:06;;;;;;;0.50;0.40;;;;;;;-143.37;100.00;65745.06;5086319;28;20665;-68
2021/05/12 07:55:33;;;;;;;0.30;0.30;;;;;;;-143.37;100.00;65745.06;5067705;28;20225;-69
2021/05/12 07:58:02;;;;;;;0.43;0.40;;;;;;;-143.37;100.00;65745.06;5084639;28;20311;-68
2021/05/12 08:00:31;;;;;;;1.20;0.50;;;;;;;-143.37;100.00;65745.06;5088784;28;20200;-67
2021/05/12 08:02:58;;;;;;;0.43;0.43;;;;;;;-143.37;100.00;65745.06;5086528;28;20200;-68
2021/05/12 08:05:24;;;;;;;0.67;0.47;;;;;;;-143.37;100.00;65745.06;5068855;28;20729;-69
2021/05/12 08:07:51;;;;;;;0.50;0.50;;;;;;;-143.37;100.00;65745.06;5088532;28;20256;-69
2021/05/12 08:10:18;;;;;;;0.70;0.70;;;;;;;-143.37;100.00;65745.06;5087116;28;20266;-69
2021/05/12 08:12:44;;;;;;;0.40;0.40;;;;;;;-143.37;100.00;65745.06;5087761;28;20296;-69
2021/05/12 08:15:12;;;;;;;1.13;0.60;;;;;;;-143.37;100.00;65745.06;5088524;28;20226;-68
2021/05/12 08:17:41;;;;;;;1.13;0.83;;;;;;;-143.37;100.00;65745.06;5069913;28;20255;-69
2021/05/12 08:20:07;;;;;;;0.83;0.57;;;;;;;-143.37;100.00;65745.06;5087701;28;20273;-69
2021/05/12 08:22:34;;;;;;;1.87;0.90;;;;;;;-143.37;100.00;65745.06;5088095;28;20208;-68
2021/05/12 08:25:01;;;;;;;2.80;0.77;;;;;;;-143.37;100.00;65745.06;5086858;28;20254;-68
2021/05/12 08:27:28;;;;;;;0.67;0.67;;;;;;;-143.37;100.00;65745.06;5085319;28;20720;-67
2021/05/12 08:29:59;;;;;;;0.90;0.47;;;;;;;-143.37;100.00;65745.06;5088194;28;20205;-68
2021/05/12 08:32:26;;;;;;;0.93;0.50;;;;;;;-143.37;100.00;65745.06;5087179;28;20212;-68
2021/05/12 08:34:56;;;;;;;0.97;0.50;;;;;;;-143.37;100.00;65745.06;5085136;28;20231;-70
2021/05/12 08:37:23;;;;;;;1.77;0.63;;;;;;;-143.37;100.00;65745.06;5086195;28;20251;-67
2021/05/12 08:39:50;;;;;;;0.93;0.50;;;;;;;-143.37;100.00;65745.06;5087579;28;20201;-67
2021/05/12 08:42:18;;;;;;;1.30;0.50;;;;;;;-143.37;100.00;65745.06;5086231;28;20205;-67
2021/05/12 08:44:47;;;;;;;0.97;0.40;;;;;;;-143.37;100.00;65745.06;5085332;28;20258;-66
2021/05/12 08:47:16;;;;;;;1.47;0.90;;;;;;;-143.37;100.00;65745.06;5067608;28;20220;-68
2021/05/12 08:49:44;;;;;;;0.37;0.37;;;;;;;-143.37;100.00;65745.06;5090343;28;20227;-70
2021/05/12 08:52:10;;;;;;;0.60;0.60;;;;;;;-143.37;100.00;65745.06;5104733;28;20572;-69
2021/05/12 08:54:39;;;;;;;0.57;0.53;;;;;;;-143.37;100.00;65745.06;5105017;28;20224;-71
2021/05/12 08:57:06;;;;;;;0.77;0.30;;;;;;;-143.37;100.00;65745.06;5092268;28;20221;-70
2021/05/12 08:59:33;;;;;;;0.57;0.57;;;;;;;-143.37;100.00;65745.06;5080143;28;20774;-71
2021/05/12 09:02:00;;;;;;;1.83;0.90;;;;;;;-143.37;100.00;65745.06;5084796;28;20291;-67
2021/05/12 09:04:28;;;;;;;1.17;0.83;;;;;;;-143.37;100.00;65745.06;5083014;28;20716;-68
2021/05/12 09:06:55;;;;;;;0.50;0.50;;;;;;;-143.37;100.00;65745.06;5080711;28;20247;-71
2021/05/12 09:09:24;;;;;;;0.43;0.43;;;;;;;-143.37;100.00;65745.06;5085461;28;20732;-68
2021/05/12 09:11:50;;;;;;;1.00;0.90;;;;;;;-143.37;100.00;65745.06;5085412;28;20240;-68
2021/05/12 09:14:26;;;;;;;0.63;0.60;;;;;;;-143.37;100.00;65745.06;5085884;28;20634;-67
2021/05/12 09:16:52;;;;;;;3.27;0.70;;;;;;;-143.37;100.00;65745.06;5085832;28;20220;-67
2021/05/12 09:19:24;;;;;;;0.60;0.57;;;;;;;-143.37;100.00;65745.06;5087163;28;20204;-67
2021/05/12 09:21:57;;;;;;;0.50;0.50;;;;;;;-143.37;100.00;65745.06;5086262;28;20685;-69
2021/05/12 09:24:35;;;;;;;0.80;0.80;;;;;;;-143.37;100.00;65745.06;5083523;28;20606;-70
2021/05/12 09:27:08;;;;;;;0.40;0.40;;;;;;;-143.37;100.00;65745.06;5084392;28;20748;-70
2021/05/12 09:29:38;;;;;;;0.63;0.60;;;;;;;-143.37;100.00;65745.06;5084607;28;20240;-68
2021/05/12 09:32:11;;;;;;;0.47;0.47;;;;;;;-143.37;100.00;65745.06;5085071;28;20223;-71
2021/05/12 09:35:00;;;;;;;1.00;0.90;;;;;;;-143.37;100.00;65745.06;5084620;28;20225;-69
2021/05/12 09:37:28;;;;;;;0.30;0.30;;;;;;;-143.37;100.00;65745.06;5084202;28;20252;-69
2021/05/12 09:39:55;;;;;;;0.50;0.50;;;;;;;-143.37;100.00;65745.06;5084982;28;20208;-69
2021/05/12 09:42:23;;;;;;;0.60;0.60;;;;;;;-143.37;100.00;65745.06;5082976;28;20700;-67
2021/05/12 09:45:19;;;;;;;0.77;0.70;;;;;;;-143.37;100.00;65745.06;5083356;28;20756;-69
2021/05/12 09:47:50;;;;;;;1.07;0.67;;;;;;;-143.37;100.00;65745.06;5084925;28;20314;-67
2021/05/12 09:50:38;;;;;;;1.47;0.73;;;;;;;-143.37;100.00;65745.06;5096084;28;20234;-68
2021/05/12 09:53:11;;;;;;;0.90;0.70;;;;;;;-143.37;100.00;65745.06;5105402;28;20207;-69
2021/05/12 09:55:47;;;;;;;1.80;0.73;;;;;;;-143.37;100.00;65745.06;5107457;28;20219;-69
2021/05/12 09:58:21;;;;;;;0.97;0.87;;;;;;;-143.37;100.00;65745.06;5078047;28;20215;-71
2021/05/12 10:00:49;;;;;;;0.70;0.50;;;;;;;-143.37;100.00;65745.06;5070449;28;20235;-70
2021/05/12 10:03:21;;;;;;;1.33;0.70;;;;;;;-143.37;100.00;65745.06;5088112;28;20265;-71
2021/05/12 10:05:59;;;;;;;0.30;0.30;;;;;;;-143.37;100.00;65745.06;5088054;28;20209;-69
2021/05/12 10:08:36;;;;;;;0.93;0.63;;;;;;;-143.37;100.00;65745.06;5088114;28;20288;-70
2021/05/12 10:11:05;;;;;;;0.30;0.30;;;;;;;-143.37;100.00;65745.06;5088352;28;20299;-70
2021/05/12 10:13:35;;;;;;;0.63;0.50;;;;;;;-143.37;100.00;65745.06;5088900;28;20265;-69
2021/05/12 10:16:05;;;;;;;0.60;0.50;;;;;;;-143.37;100.00;65745.06;5087548;28;20227;-70
2021/05/12 10:18:32;;;;;;;1.80;0.57;;;;;;;-143.37;100.00;65745.06;5088902;28;20230;-69
2021/05/12 10:21:00;;;;;;;0.43;0.43;;;;;;;-143.37;100.00;65745.06;5092000;28;20247;-70
2021/05/12 10:23:28;;;;;;;1.13;0.63;;;;;;;-143.37;100.00;65745.06;5091927;28;20738;-70
2021/05/12 10:25:56;;;;;;;0.40;0.40;;;;;;;-143.37;100.00;65745.06;5093194;28;20197;-70
2021/05/12 10:28:22;;;;;;;0.43;0.40;;;;;;;-143.37;100.00;65745.06;5093083;28;20315;-69
2021/05/12 10:30:54;;;;;;;0.67;0.50;;;;;;;-143.37;100.00;65745.06;5093248;28;20296;-72
2021/05/12 10:33:45;;;;;;;0.47;0.40;;;;;;;-143.37;100.00;65745.06;5092862;28;20277;-71
2021/05/12 10:36:12;;;;;;;0.70;0.53;;;;;;;-143.37;100.00;65745.06;5092576;28;20260;-71
2021/05/12 10:38:44;;;;;;;0.47;0.43;;;;;;;-143.37;100.00;65745.06;5093030;28;20221;-70
2021/05/12 10:41:37;;;;;;;0.27;0.27;;;;;;;-143.37;100.00;65745.06;5092111;28;20235;-71
2021/05/12 10:44:21;;;;;;;0.50;0.50;;;;;;;-143.37;100.00;65745.06;5091668;28;20226;-70
2021/05/12 10:47:18;;;;;;;0.50;0.50;;;;;;;-143.37;100.00;65745.06;5092992;28;20285;-70
2021/05/12 10:49:55;;;;;;;0.40;0.40;;;;;;;-143.37;100.00;65745.06;5098262;28;20203;-70
2021/05/12 10:52:21;;;;;;;0.77;0.57;;;;;;;-143.37;100.00;65745.06;5113218;28;20208;-70
2021/05/12 10:54:53;;;;;;;2.60;0.50;;;;;;;-143.37;100.00;65745.06;5112903;28;20200;-68
2021/05/12 10:57:32;;;;;;;0.67;0.40;;;;;;;-143.37;100.00;65745.06;5099499;28;20252;-70
2021/05/12 10:59:58;;;;;;;0.30;0.30;;;;;;;-143.37;100.00;65745.06;5092655;28;20208;-70
2021/05/12 11:02:49;;;;;;;0.40;0.40;;;;;;;-143.37;100.00;65745.06;5091395;28;20744;-68
2021/05/12 11:05:19;;;;;;;0.37;0.37;;;;;;;-143.37;100.00;65745.06;5091423;28;20251;-71
2021/05/12 11:08:15;;;;;;;2.97;1.23;;;;;;;-143.37;100.00;65745.06;5091151;28;20269;-70
2021/05/12 11:11:02;;;;;;;1.40;0.50;;;;;;;-143.37;100.00;65745.06;5092406;28;20254;-70
2021/05/12 11:13:31;;;;;;;0.40;0.40;;;;;;;-143.37;100.00;65745.06;5090976;28;20200;-69
2021/05/12 11:16:00;;;;;;;0.53;0.53;;;;;;;-143.37;100.00;65745.06;5092035;28;20252;-69
2021/05/12 11:18:36;;;;;;;0.40;0.40;;;;;;;-143.37;100.00;65745.06;5077440;28;20233;-68
2021/05/12 11:21:28;;;;;;;0.57;0.57;;;;;;;-143.37;100.00;65745.06;5086078;28;20290;-66
2021/05/12 11:24:05;;;;;;;0.70;0.60;;;;;;;-143.37;100.00;65745.06;5086036;28;20201;-66
2021/05/12 11:32:08;;;;;;;0.47;0.47;;;;;;;-143.37;100.00;65745.06;5087749;28;20258;-69
2021/05/12 11:34:36;;;;;;;0.90;0.43;;;;;;;-143.37;100.00;65745.06;5087005;28;20273;-70
2021/05/12 11:37:21;;;;;;;0.97;0.57;;;;;;;-143.37;100.00;65745.06;5085288;28;20641;-68
2021/05/12 11:39:56;;;;;;;0.53;0.43;;;;;;;-143.37;100.00;65745.06;5086605;28;20201;-70
2021/05/12 11:42:31;;;;;;;1.43;0.97;;;;;;;-143.37;100.00;65745.06;5086378;28;20811;-69
2021/05/12 11:45:08;;;;;;;1.10;0.80;;;;;;;-143.37;100.00;65745.06;5085512;28;20211;-70
2021/05/12 11:47:38;;;;;;;1.00;0.67;;;;;;;-143.37;100.00;65745.06;5086253;28;20277;-69
2021/05/12 11:50:22;;;;;;;0.40;0.40;;;;;;;-143.37;100.00;65745.06;5098158;28;20196;-69
2021/05/12 11:52:49;;;;;;;0.57;0.57;;;;;;;-143.37;100.00;65745.06;5081122;28;20239;-70
2021/05/12 11:55:18;;;;;;;0.57;0.57;;;;;;;-143.37;100.00;65745.06;5064186;28;20320;-68
2021/05/12 11:57:45;;;;;;;0.73;0.70;;;;;;;-143.37;100.00;65745.06;5083323;28;20376;-70